Time;durP1;ratioP1;P1;durP2;ratioP2;P2;SDS_P1;SDS_P2;PMS_P1;PMS_P2;Temp;Humidity;BMP_temperature;BMP_pressure;BME280_temperature;BME280_humidity;BME280_pressure;Samples;Min_cycle;Max_cycle;Signal;HPM_P1;HPM_P2
2024/03/14 00:00:46;;;;;;;1.13;0.90;;;10.80;91.10;;;;;;5133769;27;20447;-74
2024/03/14 00:03:12;;;;;;;1.13;0.77;;;10.80;91.10;;;;;;5133494;27;20134;-74
2024/03/14 00:05:38;;;;;;;1.20;1.02;;;10.70;91.00;;;;;;5133182;27;20080;-74
2024/03/14 00:08:04;;;;;;;1.30;1.10;;;10.70;91.10;;;;;;5115046;28;20046;-73
2024/03/14 00:10:30;;;;;;;0.77;0.77;;;10.70;91.10;;;;;;5097621;28;20443;-73
2024/03/14 00:12:57;;;;;;;1.00;0.80;;;10.70;91.10;;;;;;5133548;27;20111;-73
2024/03/14 00:15:22;;;;;;;0.88;0.77;;;10.70;91.10;;;;;;5133016;27;20478;-74
2024/03/14 00:17:48;;;;;;;1.40;0.90;;;10.60;91.10;;;;;;5114600;28;20035;-74
2024/03/14 00:20:15;;;;;;;1.48;1.00;;;10.60;91.10;;;;;;5114499;28;20497;-73
2024/03/14 00:22:41;;;;;;;0.80;0.70;;;10.70;91.10;;;;;;5132839;27;20119;-74
2024/03/14 00:25:11;;;;;;;1.30;0.90;;;10.60;91.10;;;;;;5133411;27;20043;-74
2024/03/14 00:27:38;;;;;;;0.90;0.65;;;10.60;91.10;;;;;;5132841;27;20490;-74
2024/03/14 00:30:11;;;;;;;1.10;0.75;;;10.60;91.10;;;;;;5133006;27;20039;-74
2024/03/14 00:32:37;;;;;;;0.80;0.75;;;10.50;91.10;;;;;;5118844;28;20452;-74
2024/03/14 00:35:03;;;;;;;0.88;0.77;;;10.50;91.10;;;;;;5136447;27;20038;-74
2024/03/14 00:37:30;;;;;;;0.82;0.80;;;10.50;91.20;;;;;;5136424;27;20035;-74
2024/03/14 00:39:56;;;;;;;1.02;0.70;;;10.50;91.10;;;;;;5136375;27;20086;-74
2024/03/14 00:42:25;;;;;;;1.67;1.13;;;10.50;91.10;;;;;;5136559;27;20035;-74
2024/03/14 00:44:52;;;;;;;1.05;0.85;;;10.50;91.10;;;;;;5136568;27;20092;-73
2024/03/14 00:47:19;;;;;;;1.00;0.80;;;10.50;91.10;;;;;;5136341;27;20039;-74
2024/03/14 00:49:44;;;;;;;0.82;0.70;;;10.50;91.10;;;;;;5118491;28;20050;-73
2024/03/14 00:52:11;;;;;;;1.35;0.90;;;10.60;91.10;;;;;;5136649;27;20490;-74
2024/03/14 00:54:37;;;;;;;1.40;0.80;;;10.60;91.10;;;;;;5136163;27;20118;-74
2024/03/14 00:57:02;;;;;;;1.20;0.90;;;10.50;91.10;;;;;;5136657;27;20093;-74
2024/03/14 00:59:29;;;;;;;1.23;0.80;;;10.50;91.10;;;;;;5136229;27;20054;-73
2024/03/14 01:01:55;;;;;;;0.80;0.80;;;10.50;91.10;;;;;;5117552;27;20398;-73
2024/03/14 01:04:22;;;;;;;0.70;0.70;;;10.50;91.10;;;;;;5136426;27;20118;-73
2024/03/14 01:06:52;;;;;;;0.50;0.50;;;10.50;91.10;;;;;;5117326;28;20043;-73
2024/03/14 01:09:20;;;;;;;0.52;0.52;;;10.40;91.10;;;;;;5135890;27;20042;-74
2024/03/14 01:11:45;;;;;;;1.35;0.90;;;10.40;91.10;;;;;;5117474;28;20057;-73
2024/03/14 01:14:11;;;;;;;1.60;0.93;;;10.40;91.10;;;;;;5135470;28;20478;-73
2024/03/14 01:16:39;;;;;;;1.27;0.88;;;10.50;91.10;;;;;;5117186;28;20035;-74
2024/03/14 01:19:07;;;;;;;1.08;0.82;;;10.50;91.10;;;;;;5134128;28;20050;-74
2024/03/14 01:21:39;;;;;;;0.95;0.80;;;10.40;91.10;;;;;;5117659;27;20126;-74
2024/03/14 01:24:06;;;;;;;1.05;0.70;;;10.40;91.10;;;;;;5133724;28;20421;-73
2024/03/14 01:26:32;;;;;;;1.50;0.95;;;10.40;91.10;;;;;;5117354;28;20130;-74
2024/03/14 01:29:01;;;;;;;1.58;1.00;;;10.40;91.10;;;;;;5135870;27;20039;-74
2024/03/14 01:31:27;;;;;;;1.50;1.30;;;10.40;91.10;;;;;;5116973;27;20039;-74
2024/03/14 01:33:53;;;;;;;2.38;1.20;;;10.40;91.10;;;;;;5117034;28;20122;-74
2024/03/14 01:36:20;;;;;;;2.25;1.35;;;10.40;91.10;;;;;;5136018;27;20130;-74
2024/03/14 01:38:46;;;;;;;2.30;1.52;;;10.40;91.10;;;;;;5135330;27;20039;-74
2024/03/14 01:41:17;;;;;;;1.52;1.13;;;10.30;91.10;;;;;;5116884;28;20134;-74
2024/03/14 01:43:56;;;;;;;2.22;1.40;;;10.40;91.10;;;;;;5134219;27;20172;-74
2024/03/14 01:46:23;;;;;;;2.72;1.50;;;10.30;91.10;;;;;;5098326;28;20080;-74
2024/03/14 01:48:49;;;;;;;1.92;1.20;;;10.40;91.40;;;;;;5116841;27;20039;-74
2024/03/14 01:51:15;;;;;;;1.65;1.08;;;10.30;91.10;;;;;;5134910;27;20047;-74
2024/03/14 01:53:41;;;;;;;2.30;1.30;;;10.40;91.10;;;;;;5135071;27;20037;-74
2024/03/14 01:56:07;;;;;;;1.80;1.20;;;10.30;91.10;;;;;;5135105;27;20045;-74
2024/03/14 01:58:33;;;;;;;3.13;1.48;;;10.30;91.10;;;;;;5135068;27;20066;-74
2024/03/14 02:01:01;;;;;;;2.33;1.55;;;10.30;91.10;;;;;;5082931;28;20550;-74
2024/03/14 02:03:27;;;;;;;2.72;1.55;;;10.30;91.20;;;;;;5117075;28;20046;-74
2024/03/14 02:06:04;;;;;;;2.05;1.40;;;10.20;91.20;;;;;;5135392;27;20043;-74
2024/03/14 02:08:30;;;;;;;2.22;1.40;;;10.30;91.20;;;;;;5134255;28;20047;-73
2024/03/14 02:10:56;;;;;;;2.45;1.40;;;10.30;91.20;;;;;;5134920;28;20035;-74
2024/03/14 02:13:21;;;;;;;1.98;1.40;;;10.20;91.20;;;;;;5134995;28;20038;-73
2024/03/14 02:15:48;;;;;;;1.20;1.10;;;10.10;91.20;;;;;;5116329;28;20035;-74
2024/03/14 02:18:14;;;;;;;2.03;1.23;;;10.10;91.30;;;;;;5135168;28;20497;-74
2024/03/14 02:20:40;;;;;;;2.13;1.35;;;10.10;91.30;;;;;;5134683;27;20590;-73
2024/03/14 02:23:05;;;;;;;2.58;1.40;;;10.10;91.30;;;;;;5116334;28;20043;-73
2024/03/14 02:25:31;;;;;;;1.85;1.30;;;10.10;91.30;;;;;;5030929;28;20065;-74
2024/03/14 02:27:57;;;;;;;3.05;1.30;;;10.10;91.30;;;;;;5031571;28;20370;-74
2024/03/14 02:30:23;;;;;;;1.88;1.20;;;10.00;91.30;;;;;;5031243;28;20045;-74
2024/03/14 02:32:51;;;;;;;1.77;1.20;;;10.00;91.30;;;;;;5014770;28;20513;-73
2024/03/14 02:35:17;;;;;;;2.05;1.20;;;10.00;91.30;;;;;;5031159;28;20127;-74
2024/03/14 02:37:44;;;;;;;1.67;1.20;;;10.00;91.40;;;;;;5014842;28;20041;-74
2024/03/14 02:40:11;;;;;;;1.80;1.25;;;10.00;91.40;;;;;;5030720;28;20052;-74
2024/03/14 02:42:37;;;;;;;1.30;1.00;;;10.00;91.40;;;;;;5030874;28;20044;-74
2024/03/14 02:45:06;;;;;;;1.60;1.25;;;10.00;91.40;;;;;;5014679;28;20073;-74
2024/03/14 02:47:31;;;;;;;2.15;1.40;;;10.00;91.40;;;;;;4995129;28;20045;-76
2024/03/14 02:49:57;;;;;;;1.58;1.20;;;9.90;91.40;;;;;;4994746;28;20045;-73
2024/03/14 02:52:23;;;;;;;1.88;1.30;;;9.90;91.40;;;;;;5011451;28;20091;-73
2024/03/14 02:54:49;;;;;;;1.85;1.25;;;9.90;91.40;;;;;;5011034;28;20490;-74
2024/03/14 02:57:14;;;;;;;2.42;1.40;;;9.90;91.40;;;;;;5010157;28;20037;-74
2024/03/14 02:59:40;;;;;;;1.92;1.25;;;9.90;91.40;;;;;;5034142;28;20049;-73
2024/03/14 03:02:10;;;;;;;2.80;1.63;;;9.90;91.40;;;;;;5039292;28;20040;-73
2024/03/14 03:04:37;;;;;;;1.42;1.08;;;9.90;91.40;;;;;;5070696;28;20488;-73
2024/03/14 03:07:05;;;;;;;2.17;1.27;;;9.80;91.40;;;;;;5070604;28;20579;-73
2024/03/14 03:09:31;;;;;;;1.52;1.17;;;9.80;91.40;;;;;;5071020;28;20044;-74
2024/03/14 03:11:58;;;;;;;1.42;1.10;;;9.80;91.50;;;;;;5070471;28;20124;-74
2024/03/14 03:14:24;;;;;;;1.83;1.30;;;9.80;91.50;;;;;;5070861;28;20083;-73
2024/03/14 03:16:50;;;;;;;2.15;1.40;;;9.70;91.50;;;;;;5054097;28;20086;-74
2024/03/14 03:19:16;;;;;;;1.77;1.20;;;9.70;91.50;;;;;;5067760;28;20040;-73
2024/03/14 03:21:42;;;;;;;1.90;1.10;;;9.70;91.60;;;;;;5056870;28;20169;-74
2024/03/14 03:24:12;;;;;;;1.10;1.00;;;9.70;91.60;;;;;;5073749;28;20078;-73
2024/03/14 03:26:41;;;;;;;1.83;1.23;;;9.70;91.60;;;;;;5090955;28;20071;-74
2024/03/14 03:29:06;;;;;;;1.60;1.20;;;9.60;91.50;;;;;;5073610;28;20070;-74
2024/03/14 03:31:32;;;;;;;1.98;1.30;;;9.60;91.60;;;;;;5073429;28;20114;-73
2024/03/14 03:33:58;;;;;;;1.42;1.10;;;9.60;91.60;;;;;;5073576;28;20044;-73
2024/03/14 03:36:24;;;;;;;1.55;1.17;;;9.60;91.60;;;;;;5109965;28;20394;-74
2024/03/14 03:38:50;;;;;;;2.20;1.27;;;9.50;91.60;;;;;;5133201;27;20069;-73
2024/03/14 03:41:16;;;;;;;1.33;1.10;;;9.50;91.60;;;;;;5097982;27;20039;-73
2024/03/14 03:43:43;;;;;;;2.00;1.30;;;9.50;91.60;;;;;;5115188;28;20043;-74
2024/03/14 03:46:09;;;;;;;1.80;1.23;;;9.50;91.60;;;;;;5098201;28;20054;-74
2024/03/14 03:48:37;;;;;;;3.40;1.70;;;9.50;91.60;;;;;;5114803;28;20066;-74
2024/03/14 03:51:04;;;;;;;2.53;1.20;;;9.50;91.60;;;;;;5115264;27;20051;-74
2024/03/14 03:53:32;;;;;;;1.92;1.05;;;9.50;91.60;;;;;;5115172;28;20069;-73
2024/03/14 03:56:00;;;;;;;2.85;1.45;;;9.50;91.60;;;;;;5133383;27;20118;-72
2024/03/14 03:58:26;;;;;;;1.77;1.20;;;9.50;91.60;;;;;;5114897;27;20035;-74
2024/03/14 04:00:53;;;;;;;2.72;1.55;;;9.40;91.60;;;;;;5133720;28;20084;-73
2024/03/14 04:03:20;;;;;;;1.45;1.10;;;9.40;91.60;;;;;;5115013;28;20046;-73
2024/03/14 04:05:46;;;;;;;2.38;1.40;;;9.40;91.60;;;;;;5113631;28;20113;-73
2024/03/14 04:08:15;;;;;;;1.65;1.15;;;9.40;91.60;;;;;;5133116;28;20035;-73
2024/03/14 04:10:41;;;;;;;2.40;1.23;;;9.40;91.60;;;;;;5114927;28;20043;-73
2024/03/14 04:13:12;;;;;;;2.17;1.30;;;9.40;91.60;;;;;;5095571;28;20550;-73
2024/03/14 04:15:38;;;;;;;1.90;1.20;;;9.40;91.60;;;;;;5133261;27;20054;-73
2024/03/14 04:18:05;;;;;;;2.20;1.30;;;9.40;91.60;;;;;;5080720;28;20428;-73
2024/03/14 04:20:33;;;;;;;1.58;1.00;;;9.30;91.60;;;;;;5132672;27;20087;-73
2024/03/14 04:22:59;;;;;;;2.40;1.25;;;9.30;91.60;;;;;;5114826;28;20119;-74
2024/03/14 04:25:25;;;;;;;1.85;1.20;;;9.30;91.70;;;;;;5132776;27;20501;-73
2024/03/14 04:27:52;;;;;;;1.50;1.13;;;9.30;91.70;;;;;;5133137;27;20035;-74
2024/03/14 04:30:21;;;;;;;1.48;1.05;;;9.30;91.70;;;;;;5115059;28;20038;-74
2024/03/14 04:32:48;;;;;;;1.90;1.20;;;9.30;91.70;;;;;;5133135;27;20031;-73
2024/03/14 04:35:15;;;;;;;2.00;1.30;;;9.20;91.70;;;;;;5114812;28;20053;-73
2024/03/14 04:37:42;;;;;;;2.20;0.93;;;9.30;91.70;;;;;;5114422;28;20127;-73
2024/03/14 04:40:12;;;;;;;1.55;1.00;;;9.30;91.70;;;;;;5114676;28;20047;-74
2024/03/14 04:42:40;;;;;;;0.90;0.70;;;9.20;91.70;;;;;;5097880;27;20144;-73
2024/03/14 04:45:11;;;;;;;1.52;0.90;;;9.20;91.70;;;;;;5132804;27;20035;-73
2024/03/14 04:47:38;;;;;;;2.13;1.30;;;9.10;91.70;;;;;;5097392;28;20054;-73
2024/03/14 04:50:08;;;;;;;1.52;1.10;;;9.10;91.80;;;;;;5113725;28;20061;-73
2024/03/14 04:52:34;;;;;;;1.50;1.10;;;9.00;91.80;;;;;;5132354;27;20036;-74
2024/03/14 04:54:59;;;;;;;2.13;1.23;;;9.00;91.80;;;;;;5114004;28;20039;-74
2024/03/14 04:57:26;;;;;;;1.50;1.00;;;9.00;91.80;;;;;;5097097;27;20049;-74
2024/03/14 04:59:52;;;;;;;1.13;0.80;;;9.00;91.80;;;;;;5132262;27;20047;-74
2024/03/14 05:02:18;;;;;;;1.25;0.98;;;9.00;91.80;;;;;;5132737;27;20043;-73
2024/03/14 05:04:43;;;;;;;2.70;0.95;;;9.00;91.80;;;;;;5132422;27;20042;-73
2024/03/14 05:07:09;;;;;;;2.03;1.00;;;8.90;91.80;;;;;;5132426;27;20027;-74
2024/03/14 05:09:35;;;;;;;1.48;1.00;;;8.90;91.80;;;;;;5079881;28;20043;-74
2024/03/14 05:12:01;;;;;;;1.33;1.00;;;8.90;91.80;;;;;;5132345;27;20039;-74
2024/03/14 05:14:26;;;;;;;1.70;1.20;;;8.90;91.80;;;;;;5132639;28;20042;-74
2024/03/14 05:16:52;;;;;;;1.92;1.10;;;8.90;91.90;;;;;;5114460;27;20031;-74
2024/03/14 05:19:20;;;;;;;1.42;1.10;;;8.90;91.90;;;;;;5117717;28;20031;-73
2024/03/14 05:21:46;;;;;;;1.63;1.13;;;8.90;91.90;;;;;;5100772;28;20074;-74
2024/03/14 05:24:16;;;;;;;1.40;1.02;;;8.90;91.90;;;;;;5117617;28;20039;-73
2024/03/14 05:26:42;;;;;;;1.15;0.88;;;8.90;91.80;;;;;;5136071;27;20475;-74
2024/03/14 05:29:08;;;;;;;2.22;1.35;;;8.90;91.80;;;;;;5117575;27;20096;-74
2024/03/14 05:31:35;;;;;;;1.67;1.10;;;8.80;91.80;;;;;;5135497;27;20036;-73
2024/03/14 05:34:01;;;;;;;2.20;1.35;;;8.90;91.80;;;;;;5117908;27;20062;-73
2024/03/14 05:36:26;;;;;;;2.13;1.02;;;8.90;91.80;;;;;;5117198;28;20047;-74
2024/03/14 05:38:52;;;;;;;1.40;1.10;;;8.90;91.80;;;;;;5136021;27;20031;-74
2024/03/14 05:41:18;;;;;;;1.50;1.05;;;8.90;91.80;;;;;;5116972;28;20043;-73
2024/03/14 05:43:45;;;;;;;1.40;1.10;;;8.90;91.80;;;;;;5100130;28;20039;-73
2024/03/14 05:46:12;;;;;;;1.83;1.30;;;8.90;91.80;;;;;;5135727;27;20051;-73
2024/03/14 05:48:38;;;;;;;1.25;1.00;;;8.90;91.80;;;;;;5099888;28;20039;-73
2024/03/14 05:51:04;;;;;;;1.65;1.20;;;8.90;91.70;;;;;;5117593;28;20115;-73
2024/03/14 05:53:31;;;;;;;1.83;1.10;;;8.90;91.70;;;;;;5135672;27;20047;-73
2024/03/14 05:56:02;;;;;;;2.00;1.10;;;8.90;91.70;;;;;;5117230;28;20043;-73
2024/03/14 05:58:28;;;;;;;1.50;1.10;;;8.90;91.70;;;;;;5117601;28;20065;-73
2024/03/14 06:00:55;;;;;;;1.30;0.80;;;8.90;91.80;;;;;;5116803;27;20798;-73
2024/03/14 06:03:21;;;;;;;1.15;0.85;;;8.90;91.80;;;;;;5135685;27;20035;-73
2024/03/14 06:05:52;;;;;;;1.08;0.80;;;8.80;91.80;;;;;;5117324;28;20070;-74
2024/03/14 06:08:18;;;;;;;1.23;0.80;;;8.80;91.80;;;;;;5135153;28;20053;-73
2024/03/14 06:10:44;;;;;;;1.25;1.08;;;8.80;91.80;;;;;;5134986;27;20047;-74
2024/03/14 06:13:14;;;;;;;1.55;1.02;;;8.80;91.80;;;;;;5116929;28;20035;-74
2024/03/14 06:15:40;;;;;;;1.15;0.90;;;8.80;91.90;;;;;;5134838;27;20071;-74
2024/03/14 06:18:06;;;;;;;1.10;0.90;;;8.70;91.80;;;;;;5099651;28;20498;-73
2024/03/14 06:20:34;;;;;;;1.58;1.00;;;8.70;91.90;;;;;;5135397;27;20043;-74
2024/03/14 06:23:00;;;;;;;0.90;0.70;;;8.70;91.90;;;;;;5134761;27;20051;-74
2024/03/14 06:25:25;;;;;;;0.95;0.75;;;8.70;91.90;;;;;;5116547;28;20371;-74
2024/03/14 06:27:52;;;;;;;1.30;0.70;;;8.70;91.90;;;;;;5099195;28;20489;-74
2024/03/14 06:30:18;;;;;;;0.60;0.57;;;8.70;91.80;;;;;;5133885;27;20587;-74
2024/03/14 06:32:45;;;;;;;1.65;0.88;;;8.70;91.80;;;;;;5134734;27;20035;-74
2024/03/14 06:35:12;;;;;;;1.10;0.80;;;8.80;91.80;;;;;;5116187;28;20506;-74
2024/03/14 06:37:37;;;;;;;1.38;0.85;;;8.80;91.90;;;;;;5116046;28;20039;-74
2024/03/14 06:40:05;;;;;;;1.15;0.77;;;8.80;91.90;;;;;;5135310;28;20496;-73
2024/03/14 06:42:32;;;;;;;1.27;0.90;;;8.80;91.80;;;;;;5116575;28;20043;-73
2024/03/14 06:45:02;;;;;;;1.50;1.10;;;8.90;91.80;;;;;;5117023;28;20035;-73
2024/03/14 06:47:29;;;;;;;1.38;0.98;;;8.90;91.80;;;;;;5095215;28;20076;-73
2024/03/14 06:49:55;;;;;;;1.58;0.95;;;8.90;91.70;;;;;;5099574;28;20047;-73
2024/03/14 06:52:21;;;;;;;1.23;0.93;;;9.00;91.70;;;;;;5134482;27;20498;-73
2024/03/14 06:54:48;;;;;;;2.25;1.20;;;9.00;91.70;;;;;;5116399;28;20031;-72
2024/03/14 06:57:14;;;;;;;1.23;0.77;;;9.00;91.60;;;;;;5116163;28;20474;-73
2024/03/14 06:59:41;;;;;;;0.80;0.80;;;9.10;91.60;;;;;;5116359;28;20476;-73
2024/03/14 07:02:07;;;;;;;1.55;1.00;;;9.10;91.60;;;;;;5116147;28;20529;-73
2024/03/14 07:04:34;;;;;;;1.23;0.80;;;9.20;91.50;;;;;;5098957;28;20043;-73
2024/03/14 07:07:01;;;;;;;1.40;0.80;;;9.20;91.50;;;;;;5115953;28;20035;-73
2024/03/14 07:09:28;;;;;;;1.52;1.13;;;9.20;91.50;;;;;;5134282;27;20060;-73
2024/03/14 07:11:54;;;;;;;0.90;0.80;;;9.30;91.50;;;;;;5079639;28;20035;-73
2024/03/14 07:14:22;;;;;;;1.90;1.10;;;9.30;91.50;;;;;;5098544;27;20050;-73
2024/03/14 07:16:49;;;;;;;1.38;0.95;;;9.30;91.40;;;;;;5116232;27;20110;-73
2024/03/14 07:19:21;;;;;;;1.25;0.80;;;9.40;91.40;;;;;;5133866;27;20046;-73
2024/03/14 07:21:53;;;;;;;1.63;1.10;;;9.40;91.40;;;;;;5133893;27;20031;-73
2024/03/14 07:24:21;;;;;;;2.20;1.40;;;9.50;91.40;;;;;;5115376;28;20493;-72
2024/03/14 07:26:47;;;;;;;1.92;1.08;;;9.50;91.40;;;;;;5116161;28;20043;-73
2024/03/14 07:29:13;;;;;;;1.20;1.00;;;9.60;91.30;;;;;;5134397;27;20063;-74
2024/03/14 07:31:42;;;;;;;1.67;1.00;;;9.70;91.30;;;;;;5115264;28;20077;-73
2024/03/14 07:34:10;;;;;;;1.40;1.00;;;9.70;91.30;;;;;;5133880;27;20067;-73
2024/03/14 07:36:38;;;;;;;2.00;1.10;;;9.70;91.20;;;;;;5134130;28;20501;-73
2024/03/14 07:39:06;;;;;;;1.27;1.00;;;9.80;91.50;;;;;;5133931;27;20052;-73
2024/03/14 07:41:32;;;;;;;1.67;1.00;;;9.90;91.20;;;;;;5132520;27;20478;-73
2024/03/14 07:43:58;;;;;;;1.40;1.10;;;9.90;91.20;;;;;;5115164;28;20046;-73
2024/03/14 07:46:24;;;;;;;1.95;1.23;;;10.00;91.10;;;;;;5115230;28;20039;-74
2024/03/14 07:48:51;;;;;;;2.30;1.05;;;10.00;91.00;;;;;;5098652;28;20050;-73
2024/03/14 07:51:17;;;;;;;1.90;1.40;;;10.20;91.00;;;;;;5115458;28;20039;-73
2024/03/14 07:53:44;;;;;;;2.13;1.30;;;10.20;91.00;;;;;;5114913;27;20114;-73
2024/03/14 07:56:13;;;;;;;2.00;1.20;;;10.20;91.00;;;;;;5114925;28;20139;-73
2024/03/14 07:58:39;;;;;;;1.60;1.10;;;10.40;90.90;;;;;;5133061;27;20076;-73
2024/03/14 08:01:09;;;;;;;1.17;1.00;;;10.50;90.90;;;;;;5133401;27;20164;-73
2024/03/14 08:03:39;;;;;;;1.25;1.02;;;10.60;90.80;;;;;;5133196;27;20054;-73
2024/03/14 08:06:08;;;;;;;1.55;1.10;;;10.60;90.80;;;;;;5115408;28;20039;-73
2024/03/14 08:08:34;;;;;;;1.80;1.20;;;10.70;90.70;;;;;;5133550;27;20054;-75
2024/03/14 08:11:03;;;;;;;1.88;1.40;;;10.80;90.70;;;;;;5115419;28;20053;-73
2024/03/14 08:13:31;;;;;;;2.28;1.30;;;10.90;90.70;;;;;;5098325;28;20089;-73
2024/03/14 08:18:42;;;;;;;1.08;0.90;;;11.00;90.60;;;;;;5117330;28;20400;-74
2024/03/14 08:21:09;;;;;;;1.88;1.17;;;11.10;90.60;;;;;;5133370;27;20035;-74
2024/03/14 08:23:35;;;;;;;2.30;1.25;;;11.20;90.50;;;;;;5114662;28;20081;-73
2024/03/14 08:26:01;;;;;;;2.00;1.23;;;11.20;90.50;;;;;;5132968;27;20067;-73
2024/03/14 08:28:27;;;;;;;1.95;1.20;;;11.10;90.50;;;;;;5115472;28;20055;-73
2024/03/14 08:30:53;;;;;;;2.33;1.17;;;11.10;90.60;;;;;;5114937;28;20047;-73
2024/03/14 08:33:22;;;;;;;1.23;0.90;;;11.20;90.70;;;;;;5114485;28;20043;-74
2024/03/14 08:35:49;;;;;;;1.33;1.05;;;11.30;90.70;;;;;;5115098;28;20436;-73
2024/03/14 08:38:15;;;;;;;1.60;1.08;;;11.50;90.70;;;;;;5132837;28;20084;-73
2024/03/14 08:40:42;;;;;;;1.00;0.80;;;11.60;90.60;;;;;;5132720;27;20039;-73
2024/03/14 08:43:08;;;;;;;1.50;0.90;;;11.60;90.50;;;;;;5132757;28;20067;-74
2024/03/14 08:45:35;;;;;;;1.35;0.98;;;11.80;90.40;;;;;;5095350;28;20075;-74
2024/03/14 08:48:05;;;;;;;1.50;1.00;;;11.90;90.40;;;;;;5132649;28;20043;-73
2024/03/14 08:50:34;;;;;;;2.20;1.20;;;12.00;90.40;;;;;;5133156;28;20418;-73
2024/03/14 08:53:00;;;;;;;1.58;1.20;;;12.10;90.30;;;;;;5135262;27;20130;-74
2024/03/14 08:55:33;;;;;;;1.15;1.05;;;12.20;90.20;;;;;;5136042;28;20122;-74
2024/03/14 08:58:03;;;;;;;2.05;1.20;;;12.30;90.20;;;;;;5117585;28;20076;-73
2024/03/14 09:00:30;;;;;;;1.45;1.20;;;12.50;90.10;;;;;;5118750;27;20047;-73
2024/03/14 09:02:59;;;;;;;1.25;1.00;;;12.50;90.00;;;;;;5135934;27;20039;-73
2024/03/14 09:05:26;;;;;;;1.92;1.00;;;12.60;90.00;;;;;;5135978;27;20066;-73
2024/03/14 09:07:52;;;;;;;1.23;1.02;;;12.70;90.00;;;;;;5135889;27;20047;-73
2024/03/14 09:10:33;;;;;;;2.08;1.40;;;12.90;89.80;;;;;;5117389;28;20393;-73
2024/03/14 09:13:00;;;;;;;1.67;1.15;;;12.90;89.60;;;;;;5135858;27;20118;-74
2024/03/14 09:15:26;;;;;;;1.80;1.25;;;12.90;89.40;;;;;;5135892;27;20520;-73
2024/03/14 09:17:52;;;;;;;1.13;1.00;;;12.90;89.40;;;;;;5118039;27;20118;-73
2024/03/14 09:20:20;;;;;;;1.48;1.00;;;12.90;89.60;;;;;;5100311;28;20126;-73
2024/03/14 09:22:53;;;;;;;0.80;0.80;;;12.90;89.70;;;;;;5135605;27;20043;-73
2024/03/14 09:25:21;;;;;;;1.00;0.90;;;13.10;89.70;;;;;;5135736;27;20062;-73
2024/03/14 09:27:47;;;;;;;1.15;0.85;;;13.10;89.60;;;;;;5136290;27;20374;-74
2024/03/14 09:30:13;;;;;;;2.95;0.90;;;13.30;89.50;;;;;;5100221;28;20043;-74
2024/03/14 09:32:40;;;;;;;1.92;0.95;;;13.30;89.40;;;;;;5117690;27;20124;-73
2024/03/14 09:35:07;;;;;;;1.05;0.82;;;13.40;89.30;;;;;;5071935;28;20557;-73
2024/03/14 09:37:33;;;;;;;0.90;0.80;;;13.40;90.00;;;;;;5055560;28;20060;-74
2024/03/14 09:39:59;;;;;;;1.45;0.75;;;13.50;89.30;;;;;;5072304;28;20040;-72
2024/03/14 09:42:26;;;;;;;1.20;0.95;;;13.60;89.20;;;;;;5055475;28;20040;-72
2024/03/14 09:44:54;;;;;;;0.80;0.80;;;13.60;89.10;;;;;;5072126;28;20036;-72
2024/03/14 09:47:29;;;;;;;0.73;0.70;;;13.60;89.10;;;;;;5072170;28;20044;-73
2024/03/14 09:49:55;;;;;;;1.25;1.00;;;13.60;89.10;;;;;;5072269;28;20036;-73
2024/03/14 09:52:21;;;;;;;0.82;0.73;;;13.50;89.10;;;;;;5054911;28;20456;-72
2024/03/14 09:54:49;;;;;;;1.10;0.90;;;13.50;89.10;;;;;;5054958;28;20032;-72
2024/03/14 09:57:16;;;;;;;0.80;0.70;;;13.50;89.10;;;;;;5054895;28;20089;-73
2024/03/14 09:59:42;;;;;;;0.65;0.65;;;13.60;89.20;;;;;;5071848;28;20047;-72
2024/03/14 10:02:18;;;;;;;1.17;1.00;;;13.60;89.20;;;;;;5071726;28;20613;-72
2024/03/14 10:04:44;;;;;;;1.98;0.90;;;13.60;89.20;;;;;;5071398;28;20075;-72
2024/03/14 10:07:11;;;;;;;1.45;0.90;;;13.60;89.20;;;;;;5130631;28;20047;-72
2024/03/14 10:09:38;;;;;;;1.08;0.95;;;13.60;89.20;;;;;;5060892;28;20047;-73
2024/03/14 10:12:09;;;;;;;0.85;0.70;;;13.70;89.20;;;;;;5061040;28;20192;-72
2024/03/14 10:14:34;;;;;;;;;;;13.60;89.20;;;;;;5062056;28;20036;-73
2024/03/14 10:17:00;;;;;;;0.90;0.75;;;13.70;89.10;;;;;;5061981;28;20007;-73
2024/03/14 10:19:30;;;;;;;0.75;0.70;;;13.80;89.20;;;;;;5061561;28;20041;-73
2024/03/14 10:21:57;;;;;;;0.80;0.70;;;13.80;88.90;;;;;;5061268;28;20496;-72
2024/03/14 10:24:27;;;;;;;0.60;0.60;;;13.80;88.90;;;;;;5061186;28;20083;-73
2024/03/14 10:26:55;;;;;;;0.75;0.65;;;13.80;88.90;;;;;;5060628;28;20044;-72
2024/03/14 10:29:22;;;;;;;0.98;0.70;;;13.80;89.00;;;;;;5042466;28;20036;-72
2024/03/14 10:31:49;;;;;;;1.67;1.05;;;13.80;88.90;;;;;;5044070;28;20587;-72
2024/03/14 10:34:15;;;;;;;1.20;0.88;;;13.90;88.80;;;;;;5061362;28;20043;-73
2024/03/14 10:36:43;;;;;;;1.13;0.90;;;13.90;88.50;;;;;;5061734;28;20478;-72
2024/03/14 10:39:13;;;;;;;1.42;0.80;;;14.00;88.30;;;;;;5042848;28;20041;-72
2024/03/14 10:41:43;;;;;;;0.63;0.63;;;14.10;88.20;;;;;;5129577;28;20047;-72
2024/03/14 10:44:14;;;;;;;1.50;0.80;;;14.10;88.10;;;;;;5134518;28;20046;-72
2024/03/14 10:46:42;;;;;;;0.60;0.50;;;14.20;88.10;;;;;;5116004;28;20050;-73
2024/03/14 10:49:11;;;;;;;1.60;0.70;;;14.30;88.00;;;;;;5134979;28;20076;-74
2024/03/14 10:51:39;;;;;;;0.85;0.80;;;14.40;87.90;;;;;;5115787;28;20035;-72
2024/03/14 10:54:08;;;;;;;0.88;0.80;;;14.40;87.60;;;;;;5134805;27;20039;-72
2024/03/14 10:56:37;;;;;;;0.60;0.55;;;14.40;87.50;;;;;;5132611;28;20039;-72
2024/03/14 10:59:06;;;;;;;1.05;0.90;;;14.50;87.50;;;;;;5134161;27;20031;-72
2024/03/14 11:01:35;;;;;;;0.80;0.80;;;14.50;87.40;;;;;;5115576;28;20068;-72
2024/03/14 11:04:02;;;;;;;1.58;0.90;;;14.60;87.40;;;;;;5134330;27;20039;-73
2024/03/14 11:06:34;;;;;;;0.77;0.77;;;14.60;87.20;;;;;;5134618;27;20092;-73
2024/03/14 11:09:03;;;;;;;0.70;0.70;;;14.70;87.00;;;;;;5134578;27;20034;-72
2024/03/14 11:11:31;;;;;;;0.63;0.63;;;14.70;86.80;;;;;;5134052;28;20066;-72
2024/03/14 11:13:59;;;;;;;0.55;0.55;;;14.80;86.70;;;;;;5134305;27;20083;-73
2024/03/14 11:16:28;;;;;;;0.60;0.60;;;14.90;86.70;;;;;;5133845;27;20180;-73
2024/03/14 11:18:59;;;;;;;0.70;0.70;;;15.00;86.50;;;;;;5133691;27;20167;-72
2024/03/14 11:21:31;;;;;;;0.60;0.60;;;15.10;86.30;;;;;;5114153;28;20031;-73
2024/03/14 11:23:59;;;;;;;0.60;0.60;;;15.10;86.20;;;;;;5116333;28;20122;-72
2024/03/14 11:26:29;;;;;;;0.73;0.57;;;15.30;86.10;;;;;;5133909;27;20047;-73
2024/03/14 11:29:02;;;;;;;0.88;0.60;;;15.40;86.00;;;;;;5113736;28;20035;-73
2024/03/14 11:31:38;;;;;;;2.03;0.70;;;15.40;85.80;;;;;;5133611;27;20049;-73
2024/03/14 11:34:05;;;;;;;0.65;0.65;;;15.50;85.50;;;;;;5133833;27;20087;-72
2024/03/14 11:36:33;;;;;;;1.33;0.80;;;15.60;85.40;;;;;;5115148;28;20443;-73
2024/03/14 11:39:20;;;;;;;0.70;0.70;;;15.70;85.40;;;;;;5133655;27;20039;-72
2024/03/14 11:41:46;;;;;;;1.00;0.75;;;15.80;85.00;;;;;;5133010;28;20108;-72
2024/03/14 11:44:17;;;;;;;0.90;0.70;;;15.90;84.80;;;;;;5115218;28;20133;-72
2024/03/14 11:46:48;;;;;;;0.98;0.70;;;15.90;84.60;;;;;;5113506;27;20039;-72
2024/03/14 11:49:16;;;;;;;0.50;0.50;;;16.00;84.40;;;;;;5132005;28;20035;-72
2024/03/14 11:51:44;;;;;;;1.15;0.70;;;16.10;84.30;;;;;;5133457;28;20035;-72
2024/03/14 11:54:14;;;;;;;0.88;0.68;;;16.20;84.20;;;;;;5133533;28;20031;-72
2024/03/14 11:56:40;;;;;;;0.50;0.50;;;16.30;84.00;;;;;;5133856;28;20535;-73
2024/03/14 11:59:11;;;;;;;0.80;0.55;;;16.40;83.80;;;;;;5070300;28;20040;-73
2024/03/14 12:01:37;;;;;;;0.90;0.80;;;16.50;83.60;;;;;;5070284;28;20036;-73
2024/03/14 12:04:06;;;;;;;1.20;0.60;;;16.50;83.40;;;;;;5070041;28;20059;-73
2024/03/14 12:06:35;;;;;;;1.67;0.77;;;16.60;83.20;;;;;;5069896;28;20056;-73
2024/03/14 12:09:04;;;;;;;0.60;0.57;;;16.60;83.20;;;;;;5070452;28;20052;-72
2024/03/14 12:11:31;;;;;;;1.23;0.80;;;16.60;83.30;;;;;;5070259;28;20206;-72
2024/03/14 12:13:58;;;;;;;0.60;0.60;;;16.70;83.10;;;;;;5069980;28;20048;-72
2024/03/14 12:16:24;;;;;;;0.73;0.60;;;16.80;83.00;;;;;;5053212;28;20093;-72
2024/03/14 12:18:52;;;;;;;0.88;0.70;;;16.80;82.80;;;;;;5053147;28;20518;-72
2024/03/14 12:21:18;;;;;;;0.82;0.70;;;16.90;82.70;;;;;;5036670;28;20492;-73
2024/03/14 12:23:54;;;;;;;0.60;0.60;;;17.00;82.50;;;;;;5053433;28;20182;-72
2024/03/14 12:26:21;;;;;;;0.50;0.50;;;17.00;82.20;;;;;;5052236;28;20083;-72
2024/03/14 12:28:48;;;;;;;0.60;0.60;;;17.00;82.40;;;;;;5052701;28;20130;-73
2024/03/14 12:31:14;;;;;;;1.02;0.63;;;17.10;82.10;;;;;;5112854;28;20079;-73
2024/03/14 12:33:44;;;;;;;0.77;0.70;;;17.30;82.00;;;;;;5114691;28;20403;-73
2024/03/14 12:36:16;;;;;;;0.30;0.30;;;17.30;81.80;;;;;;5115105;28;20035;-73
2024/03/14 12:38:50;;;;;;;0.45;0.45;;;17.30;81.80;;;;;;5114727;28;20042;-73
2024/03/14 12:41:18;;;;;;;0.50;0.50;;;17.50;81.60;;;;;;5131370;28;20039;-72
2024/03/14 12:43:47;;;;;;;0.57;0.57;;;17.60;81.40;;;;;;5114671;28;20043;-73
2024/03/14 12:46:15;;;;;;;0.75;0.70;;;17.60;81.20;;;;;;5114185;28;20556;-72
2024/03/14 12:48:45;;;;;;;0.55;0.55;;;17.70;81.20;;;;;;5132680;27;20046;-73
2024/03/14 12:51:12;;;;;;;1.17;0.50;;;17.80;80.90;;;;;;5114618;28;20099;-73
2024/03/14 12:53:39;;;;;;;2.00;0.77;;;18.00;80.80;;;;;;5133194;27;20043;-73